Gonvick, Minnesota
Current Conditions -  °F | °C
As of 3:15 AM on Wednesday 28 Jan 2015 (Local Time) from KFSE Reporting Station
Overcast Overcast  
Wind Chill: 21°   Ceiling: 1200
Heat Index: 30°   Visibility: 10mi
Dew Point: 28°   Wind: 10mph
Humidity: 93%   Direction: 140°SE
Pressure: 29.87"   Gusts: NA
Location:  47.74°N, 95.51°W
Report Text: KFSE 280915Z AUTO 14009KT 10SM OVC012 M01/M02 A2987 RMK AO2
Loading
Personal Weather Stations






























Interactive Weather Map New forecast layout! Learn more

10-Day Weather Forecast

Advertisements
Track Severe Weather on mobile